Time;durP1;ratioP1;P1;durP2;ratioP2;P2;SDS_P1;SDS_P2;PMS_P1;PMS_P2;Temp;Humidity;BMP_temperature;BMP_pressure;BME280_temperature;BME280_humidity;BME280_pressure;Samples;Min_cycle;Max_cycle;Signal;HPM_P1;HPM_P2
2023/04/27 00:01:00;;;;;;;3.45;1.00;;;;;;;;;;4945837;28;20019;-79
2023/04/27 00:03:27;;;;;;;0.40;0.40;;;;;;;;;;4940053;28;20474;-79
2023/04/27 00:05:53;;;;;;;2.85;0.50;;;;;;;;;;4948741;28;20047;-79
2023/04/27 00:08:18;;;;;;;3.50;0.70;;;;;;;;;;4949302;28;20031;-79
2023/04/27 00:10:44;;;;;;;1.13;0.50;;;;;;;;;;4947411;28;20219;-78
2023/04/27 00:13:10;;;;;;;0.52;0.52;;;;;;;;;;4947519;28;20509;-78
2023/04/27 00:15:36;;;;;;;0.70;0.63;;;;;;;;;;4946231;28;20673;-79
2023/04/27 00:18:03;;;;;;;0.60;0.50;;;;;;;;;;4948457;28;20098;-79
2023/04/27 00:20:28;;;;;;;0.95;0.85;;;;;;;;;;4948428;28;20043;-80
2023/04/27 00:22:55;;;;;;;0.70;0.50;;;;;;;;;;4948341;28;20624;-79
2023/04/27 00:25:21;;;;;;;0.52;0.47;;;;;;;;;;4944032;28;20241;-79
2023/04/27 00:27:47;;;;;;;0.30;0.30;;;;;;;;;;4947985;28;20023;-79
2023/04/27 00:30:13;;;;;;;0.68;0.50;;;;;;;;;;4948934;28;20019;-80
2023/04/27 00:32:41;;;;;;;0.47;0.47;;;;;;;;;;4947036;28;20114;-79
2023/04/27 00:35:07;;;;;;;3.13;0.50;;;;;;;;;;4947016;28;20033;-78
2023/04/27 00:37:33;;;;;;;0.40;0.40;;;;;;;;;;4946849;28;20062;-79
2023/04/27 00:39:59;;;;;;;1.13;0.55;;;;;;;;;;4946574;28;20027;-79
2023/04/27 00:42:25;;;;;;;0.80;0.68;;;;;;;;;;4936468;28;20027;-79
2023/04/27 00:44:51;;;;;;;0.95;0.82;;;;;;;;;;4943525;28;20120;-79
2023/04/27 00:47:17;;;;;;;0.70;0.60;;;;;;;;;;4945080;28;20051;-79
2023/04/27 00:49:43;;;;;;;0.40;0.40;;;;;;;;;;4930744;29;20039;-79
2023/04/27 00:52:10;;;;;;;1.40;0.65;;;;;;;;;;4949060;28;20474;-79
2023/04/27 00:54:36;;;;;;;0.65;0.65;;;;;;;;;;4947626;28;20031;-80
2023/04/27 00:57:02;;;;;;;0.50;0.40;;;;;;;;;;4948103;28;20039;-79
2023/04/27 00:59:28;;;;;;;0.40;0.40;;;;;;;;;;4948235;28;20031;-79
2023/04/27 01:01:55;;;;;;;0.98;0.60;;;;;;;;;;4947181;28;20114;-79
2023/04/27 01:04:22;;;;;;;0.40;0.40;;;;;;;;;;4944149;28;20047;-79
2023/04/27 01:06:48;;;;;;;0.40;0.35;;;;;;;;;;4947435;28;20039;-78
2023/04/27 01:09:15;;;;;;;0.90;0.60;;;;;;;;;;4948327;28;20028;-80
2023/04/27 01:11:41;;;;;;;1.23;0.50;;;;;;;;;;4947316;28;20031;-79
2023/04/27 01:14:07;;;;;;;0.52;0.52;;;;;;;;;;4947929;28;20038;-79
2023/04/27 01:16:34;;;;;;;1.10;0.50;;;;;;;;;;4946688;28;20039;-79
2023/04/27 01:19:00;;;;;;;0.50;0.50;;;;;;;;;;4947980;28;20211;-79
2023/04/27 01:21:26;;;;;;;2.30;0.80;;;;;;;;;;4947984;28;20035;-79
2023/04/27 01:23:52;;;;;;;0.50;0.50;;;;;;;;;;4947060;28;20041;-79
2023/04/27 01:26:18;;;;;;;0.80;0.43;;;;;;;;;;4946143;28;20498;-79
2023/04/27 01:28:44;;;;;;;0.60;0.45;;;;;;;;;;4941909;28;20044;-79
2023/04/27 01:31:11;;;;;;;1.02;0.55;;;;;;;;;;4924717;29;20031;-79
2023/04/27 01:33:37;;;;;;;0.75;0.55;;;;;;;;;;4939649;28;20039;-79
2023/04/27 01:36:03;;;;;;;0.47;0.38;;;;;;;;;;4942512;28;20106;-79
2023/04/27 01:38:29;;;;;;;0.30;0.30;;;;;;;;;;4941558;28;20035;-80
2023/04/27 01:41:00;;;;;;;0.40;0.40;;;;;;;;;;4942072;28;20082;-79
2023/04/27 01:43:26;;;;;;;1.98;0.77;;;;;;;;;;4940154;28;20043;-79
2023/04/27 01:45:52;;;;;;;0.40;0.40;;;;;;;;;;4944804;28;20057;-79
2023/04/27 01:48:18;;;;;;;1.08;0.43;;;;;;;;;;4945842;28;20039;-79
2023/04/27 01:50:44;;;;;;;1.48;0.40;;;;;;;;;;4943675;28;20027;-79
2023/04/27 01:53:10;;;;;;;0.77;0.45;;;;;;;;;;4945850;28;20030;-80
2023/04/27 01:55:36;;;;;;;0.65;0.50;;;;;;;;;;4943166;28;20027;-80
2023/04/27 01:58:02;;;;;;;0.52;0.50;;;;;;;;;;4947448;28;20034;-79
2023/04/27 02:00:28;;;;;;;1.17;0.50;;;;;;;;;;4944501;28;20410;-80
2023/04/27 02:02:56;;;;;;;0.65;0.52;;;;;;;;;;4942382;28;20031;-79
2023/04/27 02:05:22;;;;;;;0.40;0.40;;;;;;;;;;4943490;28;20126;-79
2023/04/27 02:07:48;;;;;;;0.63;0.63;;;;;;;;;;4944300;28;20102;-79
2023/04/27 02:10:14;;;;;;;1.23;0.70;;;;;;;;;;4949759;28;20034;-79
2023/04/27 02:12:40;;;;;;;2.95;0.52;;;;;;;;;;4950900;28;20031;-79
2023/04/27 02:15:06;;;;;;;0.43;0.43;;;;;;;;;;4951064;28;20419;-79
2023/04/27 02:17:34;;;;;;;0.93;0.50;;;;;;;;;;4951224;28;20023;-79
2023/04/27 02:20:00;;;;;;;1.30;0.95;;;;;;;;;;4950768;28;20086;-79
2023/04/27 02:22:26;;;;;;;0.88;0.60;;;;;;;;;;4951734;29;20023;-79
2023/04/27 02:24:51;;;;;;;0.52;0.52;;;;;;;;;;4950558;28;20035;-79
2023/04/27 02:27:17;;;;;;;0.30;0.30;;;;;;;;;;4948693;28;20034;-79
2023/04/27 02:29:44;;;;;;;0.40;0.40;;;;;;;;;;4951615;28;20123;-80
2023/04/27 02:32:09;;;;;;;0.73;0.60;;;;;;;;;;4952385;28;20086;-79
2023/04/27 02:34:35;;;;;;;0.40;0.30;;;;;;;;;;4950145;28;20040;-80
2023/04/27 02:37:01;;;;;;;0.45;0.45;;;;;;;;;;4951018;28;20027;-80
2023/04/27 02:39:27;;;;;;;0.47;0.45;;;;;;;;;;4949336;28;20032;-80
2023/04/27 02:41:53;;;;;;;1.48;0.40;;;;;;;;;;4953000;28;20109;-79
2023/04/27 02:44:19;;;;;;;0.40;0.40;;;;;;;;;;4944514;28;20230;-80
2023/04/27 02:46:45;;;;;;;2.10;0.50;;;;;;;;;;4946246;28;20038;-79
2023/04/27 02:49:11;;;;;;;0.82;0.70;;;;;;;;;;4950440;28;20199;-79
2023/04/27 02:51:37;;;;;;;0.40;0.40;;;;;;;;;;4950776;28;20414;-79
2023/04/27 02:54:03;;;;;;;0.43;0.43;;;;;;;;;;4950278;28;20027;-79
2023/04/27 02:56:29;;;;;;;0.60;0.50;;;;;;;;;;4942541;28;20032;-79
2023/04/27 02:58:55;;;;;;;1.90;0.73;;;;;;;;;;4939473;28;20030;-79
2023/04/27 03:01:21;;;;;;;0.70;0.60;;;;;;;;;;4950349;28;20051;-79
2023/04/27 03:03:47;;;;;;;0.93;0.75;;;;;;;;;;4947600;28;20035;-79
2023/04/27 03:06:13;;;;;;;0.80;0.45;;;;;;;;;;4949042;28;20050;-79
2023/04/27 03:08:40;;;;;;;0.55;0.50;;;;;;;;;;4949772;28;20035;-79
2023/04/27 03:11:08;;;;;;;0.52;0.30;;;;;;;;;;4949724;28;20028;-79
2023/04/27 03:13:40;;;;;;;0.70;0.70;;;;;;;;;;4950258;28;20024;-79
2023/04/27 03:16:06;;;;;;;1.83;0.52;;;;;;;;;;4950240;28;20394;-79
2023/04/27 03:18:32;;;;;;;0.30;0.30;;;;;;;;;;4946871;28;20034;-79
2023/04/27 03:21:11;;;;;;;0.50;0.50;;;;;;;;;;4950798;28;20031;-79
2023/04/27 03:23:37;;;;;;;3.97;0.57;;;;;;;;;;4942223;28;20049;-78
2023/04/27 03:26:07;;;;;;;1.08;0.60;;;;;;;;;;4950198;28;20047;-79
2023/04/27 03:28:33;;;;;;;0.60;0.43;;;;;;;;;;4948013;28;20027;-79
2023/04/27 03:31:00;;;;;;;0.55;0.40;;;;;;;;;;4950887;28;20122;-79
2023/04/27 03:33:27;;;;;;;0.60;0.60;;;;;;;;;;4950925;28;20043;-79
2023/04/27 03:35:57;;;;;;;2.35;0.60;;;;;;;;;;4948929;28;20054;-78
2023/04/27 03:38:23;;;;;;;0.82;0.50;;;;;;;;;;4951031;28;20062;-78
2023/04/27 03:40:49;;;;;;;1.08;0.73;;;;;;;;;;4949087;28;20606;-78
2023/04/27 03:43:15;;;;;;;0.63;0.50;;;;;;;;;;4949998;28;20189;-78
2023/04/27 03:45:41;;;;;;;0.35;0.35;;;;;;;;;;4948731;28;20041;-78
2023/04/27 03:48:07;;;;;;;0.35;0.35;;;;;;;;;;4946789;28;20031;-79
2023/04/27 03:50:33;;;;;;;0.50;0.38;;;;;;;;;;4950209;28;20031;-79
2023/04/27 03:52:59;;;;;;;0.45;0.45;;;;;;;;;;4952569;28;20032;-79
2023/04/27 03:55:25;;;;;;;0.30;0.30;;;;;;;;;;4944027;28;20714;-79
2023/04/27 03:57:51;;;;;;;0.32;0.32;;;;;;;;;;4951022;28;20118;-79
2023/04/27 04:00:17;;;;;;;0.52;0.40;;;;;;;;;;4951784;28;20070;-78
2023/04/27 04:02:44;;;;;;;0.73;0.73;;;;;;;;;;4950645;28;20482;-78
2023/04/27 04:05:11;;;;;;;1.52;0.50;;;;;;;;;;4949775;28;20070;-79
2023/04/27 04:07:37;;;;;;;0.50;0.50;;;;;;;;;;4949700;28;20407;-74
2023/04/27 04:10:03;;;;;;;0.50;0.50;;;;;;;;;;4948708;28;20043;-78
2023/04/27 04:12:30;;;;;;;0.30;0.30;;;;;;;;;;4955861;28;20059;-75
2023/04/27 04:14:56;;;;;;;0.55;0.50;;;;;;;;;;4943718;28;20226;-77
2023/04/27 04:17:22;;;;;;;0.60;0.60;;;;;;;;;;4947702;28;20473;-75
2023/04/27 04:19:47;;;;;;;2.13;0.40;;;;;;;;;;4946514;28;20032;-76
2023/04/27 04:22:13;;;;;;;0.40;0.40;;;;;;;;;;4950343;28;20047;-76
2023/04/27 04:24:39;;;;;;;0.45;0.45;;;;;;;;;;4946905;28;20027;-76
2023/04/27 04:27:05;;;;;;;2.55;0.43;;;;;;;;;;4941589;28;20614;-76
2023/04/27 04:29:32;;;;;;;0.98;0.40;;;;;;;;;;4947397;28;20501;-74
2023/04/27 04:31:58;;;;;;;0.82;0.55;;;;;;;;;;4941692;28;20031;-77
2023/04/27 04:34:24;;;;;;;0.40;0.40;;;;;;;;;;4916926;29;20085;-77
2023/04/27 04:36:50;;;;;;;1.88;0.75;;;;;;;;;;4950862;28;20408;-78
2023/04/27 04:39:19;;;;;;;0.50;0.50;;;;;;;;;;4951711;28;20110;-79
2023/04/27 04:41:45;;;;;;;0.50;0.20;;;;;;;;;;4945317;28;20065;-78
2023/04/27 04:44:11;;;;;;;2.92;0.45;;;;;;;;;;4947433;28;20027;-78
2023/04/27 04:46:37;;;;;;;1.85;0.38;;;;;;;;;;4942999;28;20031;-77
2023/04/27 04:49:03;;;;;;;2.58;0.70;;;;;;;;;;4944402;28;20059;-77
2023/04/27 04:51:29;;;;;;;0.70;0.50;;;;;;;;;;4941204;28;20122;-79
2023/04/27 04:53:55;;;;;;;1.02;0.70;;;;;;;;;;4935906;28;20486;-77
2023/04/27 04:56:21;;;;;;;0.47;0.47;;;;;;;;;;4946083;28;20118;-76
2023/04/27 04:58:47;;;;;;;1.10;0.50;;;;;;;;;;4948046;28;20050;-74
2023/04/27 05:01:13;;;;;;;1.30;0.55;;;;;;;;;;4940954;28;20036;-74
2023/04/27 05:03:39;;;;;;;0.30;0.30;;;;;;;;;;4943849;28;20043;-74
2023/04/27 05:06:05;;;;;;;1.75;0.50;;;;;;;;;;4936743;28;20055;-73
2023/04/27 05:08:31;;;;;;;0.50;0.40;;;;;;;;;;4948071;28;20054;-75
2023/04/27 05:10:57;;;;;;;0.50;0.50;;;;;;;;;;4946448;28;20494;-75
2023/04/27 05:13:30;;;;;;;0.88;0.40;;;;;;;;;;4943876;28;20038;-75
2023/04/27 05:15:56;;;;;;;1.35;0.40;;;;;;;;;;4941598;28;20036;-75
2023/04/27 05:18:23;;;;;;;0.50;0.50;;;;;;;;;;4943552;28;20253;-75
2023/04/27 05:20:49;;;;;;;0.52;0.35;;;;;;;;;;4951190;28;20042;-76
2023/04/27 05:23:15;;;;;;;1.08;0.60;;;;;;;;;;4947964;28;20074;-75
2023/04/27 05:25:41;;;;;;;1.52;0.55;;;;;;;;;;4948251;28;20039;-75
2023/04/27 05:28:07;;;;;;;0.40;0.40;;;;;;;;;;4951448;28;20055;-75
2023/04/27 05:30:33;;;;;;;0.73;0.45;;;;;;;;;;4946530;28;20626;-75
2023/04/27 05:32:59;;;;;;;0.38;0.38;;;;;;;;;;4947564;28;20047;-75
2023/04/27 05:35:25;;;;;;;0.77;0.55;;;;;;;;;;4952232;28;20031;-76
2023/04/27 05:37:51;;;;;;;3.80;0.75;;;;;;;;;;4951133;28;20027;-75
2023/04/27 05:40:17;;;;;;;4.95;0.30;;;;;;;;;;4953277;28;20487;-75
2023/04/27 05:42:45;;;;;;;0.45;0.45;;;;;;;;;;4952215;28;20047;-75
2023/04/27 05:45:11;;;;;;;0.30;0.30;;;;;;;;;;4951361;28;20502;-75
2023/04/27 05:47:37;;;;;;;0.50;0.50;;;;;;;;;;4952216;28;20152;-75
2023/04/27 05:50:03;;;;;;;2.60;0.47;;;;;;;;;;4952980;28;20031;-75
2023/04/27 05:52:29;;;;;;;3.70;0.50;;;;;;;;;;4951125;28;20444;-75
2023/04/27 05:54:56;;;;;;;0.75;0.60;;;;;;;;;;4946831;28;20119;-75
2023/04/27 05:57:22;;;;;;;0.95;0.40;;;;;;;;;;4943080;28;20498;-74
2023/04/27 05:59:48;;;;;;;0.75;0.50;;;;;;;;;;4947294;28;20122;-74
2023/04/27 06:02:14;;;;;;;2.70;0.40;;;;;;;;;;4947558;28;20034;-74
2023/04/27 06:04:40;;;;;;;0.82;0.50;;;;;;;;;;4948522;28;20116;-74
2023/04/27 06:07:10;;;;;;;0.63;0.63;;;;;;;;;;4947301;28;20755;-74
2023/04/27 06:09:36;;;;;;;0.45;0.45;;;;;;;;;;4949466;28;20559;-74
2023/04/27 06:12:03;;;;;;;0.70;0.70;;;;;;;;;;4948810;28;20035;-74
2023/04/27 06:14:29;;;;;;;1.65;0.30;;;;;;;;;;4946855;28;20500;-75
2023/04/27 06:16:55;;;;;;;0.32;0.32;;;;;;;;;;4939774;28;20122;-74
2023/04/27 06:19:21;;;;;;;0.50;0.50;;;;;;;;;;4940204;28;20649;-75
2023/04/27 06:21:47;;;;;;;0.82;0.60;;;;;;;;;;4945169;28;20031;-75
2023/04/27 06:24:13;;;;;;;1.38;0.65;;;;;;;;;;4948806;28;20110;-75
2023/04/27 06:26:39;;;;;;;0.30;0.30;;;;;;;;;;4949353;28;20043;-75
2023/04/27 06:29:06;;;;;;;0.55;0.55;;;;;;;;;;4951100;28;20053;-75
2023/04/27 06:31:33;;;;;;;0.63;0.40;;;;;;;;;;4945308;28;20550;-82
2023/04/27 06:33:59;;;;;;;0.50;0.50;;;;;;;;;;4945584;28;20089;-76
2023/04/27 06:36:28;;;;;;;1.45;0.52;;;;;;;;;;4944016;28;20024;-75
2023/04/27 06:38:55;;;;;;;0.60;0.40;;;;;;;;;;4944563;28;20028;-76
2023/04/27 06:41:21;;;;;;;1.45;1.27;;;;;;;;;;4950184;28;20059;-75
2023/04/27 06:43:47;;;;;;;0.60;0.60;;;;;;;;;;4946536;28;20031;-76
2023/04/27 06:46:14;;;;;;;1.40;0.70;;;;;;;;;;4945584;28;20414;-76
2023/04/27 06:48:40;;;;;;;0.60;0.60;;;;;;;;;;4946578;28;20054;-77
2023/04/27 06:51:06;;;;;;;0.20;0.20;;;;;;;;;;4946246;28;20039;-75
2023/04/27 06:53:32;;;;;;;1.17;0.32;;;;;;;;;;4937096;28;20035;-75
2023/04/27 06:55:58;;;;;;;0.68;0.43;;;;;;;;;;4951720;28;20030;-76
2023/04/27 06:58:24;;;;;;;0.40;0.40;;;;;;;;;;4934502;28;20025;-76
2023/04/27 07:00:50;;;;;;;0.40;0.40;;;;;;;;;;4945149;28;20042;-75
2023/04/27 07:03:16;;;;;;;0.40;0.40;;;;;;;;;;4938545;28;20034;-75
2023/04/27 07:05:42;;;;;;;0.88;0.55;;;;;;;;;;4939371;28;20474;-75
2023/04/27 07:08:08;;;;;;;0.77;0.50;;;;;;;;;;4925817;28;20028;-83
2023/04/27 07:10:34;;;;;;;0.43;0.38;;;;;;;;;;4933325;28;20118;-83
2023/04/27 07:13:00;;;;;;;1.30;0.47;;;;;;;;;;4941666;28;20525;-83
2023/04/27 07:15:26;;;;;;;0.63;0.50;;;;;;;;;;4950199;28;20027;-83
2023/04/27 07:17:55;;;;;;;0.40;0.40;;;;;;;;;;4952180;28;20026;-83
2023/04/27 07:20:21;;;;;;;0.55;0.55;;;;;;;;;;4952223;28;20080;-83
2023/04/27 07:22:47;;;;;;;0.25;0.25;;;;;;;;;;4951471;28;20230;-82
2023/04/27 07:25:13;;;;;;;0.43;0.43;;;;;;;;;;4951559;28;20447;-82
2023/04/27 07:27:40;;;;;;;0.20;0.20;;;;;;;;;;4934474;28;20035;-83
2023/04/27 07:30:08;;;;;;;0.60;0.60;;;;;;;;;;4951678;28;20490;-83
2023/04/27 07:32:34;;;;;;;1.67;0.82;;;;;;;;;;4952116;28;20023;-84
2023/04/27 07:35:00;;;;;;;0.30;0.30;;;;;;;;;;4950577;28;20117;-83
2023/04/27 07:37:27;;;;;;;0.38;0.38;;;;;;;;;;4952087;28;20426;-84
2023/04/27 07:39:53;;;;;;;0.22;0.22;;;;;;;;;;4951714;28;20023;-83
2023/04/27 07:42:23;;;;;;;0.50;0.50;;;;;;;;;;4950808;28;20047;-83
2023/04/27 07:44:49;;;;;;;0.70;0.43;;;;;;;;;;4949316;28;20123;-82
2023/04/27 07:47:17;;;;;;;0.75;0.50;;;;;;;;;;4951876;28;20113;-83
2023/04/27 07:49:45;;;;;;;0.40;0.40;;;;;;;;;;4951524;28;20041;-83
2023/04/27 07:52:11;;;;;;;1.05;0.47;;;;;;;;;;4943351;29;20546;-84
2023/04/27 07:54:37;;;;;;;1.25;1.05;;;;;;;;;;4932422;29;20495;-84
2023/04/27 07:57:08;;;;;;;2.97;0.63;;;;;;;;;;4946501;28;20533;-85
2023/04/27 07:59:34;;;;;;;1.25;0.40;;;;;;;;;;4951688;28;20047;-85
2023/04/27 08:02:00;;;;;;;0.52;0.40;;;;;;;;;;4950226;28;20066;-85
2023/04/27 08:04:25;;;;;;;0.38;0.35;;;;;;;;;;4939011;28;20059;-85
2023/04/27 08:06:51;;;;;;;2.70;0.57;;;;;;;;;;4945485;28;20478;-84
2023/04/27 08:09:17;;;;;;;0.60;0.60;;;;;;;;;;4948630;28;20024;-83
2023/04/27 08:11:43;;;;;;;0.68;0.50;;;;;;;;;;4946943;28;20036;-82
2023/04/27 08:14:12;;;;;;;2.95;0.50;;;;;;;;;;4942746;28;20102;-84
2023/04/27 08:16:39;;;;;;;3.42;0.45;;;;;;;;;;4950960;28;20050;-83
2023/04/27 08:19:05;;;;;;;0.40;0.40;;;;;;;;;;4948869;28;20031;-84
2023/04/27 08:21:31;;;;;;;2.35;0.95;;;;;;;;;;4921637;29;20035;-84
2023/04/27 08:23:57;;;;;;;1.55;0.50;;;;;;;;;;4951219;28;20031;-83
2023/04/27 08:26:23;;;;;;;0.40;0.40;;;;;;;;;;4951227;28;20027;-84
2023/04/27 08:28:49;;;;;;;1.55;0.50;;;;;;;;;;4923396;29;20027;-84
2023/04/27 08:31:15;;;;;;;0.90;0.55;;;;;;;;;;4948709;28;20028;-83
2023/04/27 08:33:41;;;;;;;3.40;0.60;;;;;;;;;;4950747;28;20028;-83
2023/04/27 08:36:07;;;;;;;2.15;0.47;;;;;;;;;;4954925;28;20077;-84
2023/04/27 08:38:34;;;;;;;0.40;0.40;;;;;;;;;;4949319;28;20035;-85
2023/04/27 08:41:00;;;;;;;0.52;0.50;;;;;;;;;;4937238;29;20031;-84
2023/04/27 08:43:26;;;;;;;0.98;0.32;;;;;;;;;;4951080;28;20027;-84
2023/04/27 08:45:52;;;;;;;0.30;0.30;;;;;;;;;;4950822;28;20098;-84
2023/04/27 08:48:19;;;;;;;0.68;0.40;;;;;;;;;;4951031;28;20023;-84
2023/04/27 08:50:48;;;;;;;1.65;0.40;;;;;;;;;;4950207;28;20063;-84
2023/04/27 08:53:21;;;;;;;2.83;0.50;;;;;;;;;;4949698;28;20051;-83
2023/04/27 08:55:47;;;;;;;1.25;0.70;;;;;;;;;;4950145;28;20023;-83
2023/04/27 08:58:13;;;;;;;0.20;0.20;;;;;;;;;;4945692;28;20031;-83
2023/04/27 09:00:43;;;;;;;0.40;0.40;;;;;;;;;;4945302;28;20027;-84
2023/04/27 09:03:18;;;;;;;0.32;0.32;;;;;;;;;;4943586;28;20027;-83
2023/04/27 09:05:48;;;;;;;0.80;0.50;;;;;;;;;;4949461;28;20050;-84
2023/04/27 09:08:14;;;;;;;0.38;0.38;;;;;;;;;;4949331;28;20488;-84
2023/04/27 09:10:51;;;;;;;1.13;0.50;;;;;;;;;;4950050;28;20114;-83
2023/04/27 09:13:17;;;;;;;0.50;0.50;;;;;;;;;;4949924;28;20031;-83
2023/04/27 09:15:47;;;;;;;0.45;0.45;;;;;;;;;;4950824;28;20023;-84
2023/04/27 09:18:20;;;;;;;0.60;0.57;;;;;;;;;;4950386;28;20102;-84
2023/04/27 09:20:46;;;;;;;0.63;0.38;;;;;;;;;;4949842;28;20070;-84
2023/04/27 09:23:28;;;;;;;0.38;0.38;;;;;;;;;;4949994;28;20035;-84
2023/04/27 09:25:58;;;;;;;1.02;0.60;;;;;;;;;;4950256;28;20063;-83
2023/04/27 09:28:26;;;;;;;0.30;0.30;;;;;;;;;;4933340;29;20023;-83
2023/04/27 09:30:54;;;;;;;0.30;0.30;;;;;;;;;;4944534;28;20070;-83
2023/04/27 09:33:30;;;;;;;0.60;0.60;;;;;;;;;;4947666;29;20027;-83
2023/04/27 09:35:57;;;;;;;1.23;0.60;;;;;;;;;;4950240;28;20115;-84
2023/04/27 09:38:23;;;;;;;0.38;0.38;;;;;;;;;;4933476;29;20026;-83
2023/04/27 09:40:50;;;;;;;0.47;0.40;;;;;;;;;;4949594;28;20035;-83
2023/04/27 09:43:16;;;;;;;0.68;0.68;;;;;;;;;;4949270;28;20035;-84
2023/04/27 09:45:42;;;;;;;0.35;0.32;;;;;;;;;;4950315;28;20051;-84
2023/04/27 09:48:09;;;;;;;0.50;0.47;;;;;;;;;;4950020;28;20110;-84
2023/04/27 09:50:40;;;;;;;0.43;0.43;;;;;;;;;;4950231;28;20031;-84
2023/04/27 09:53:07;;;;;;;0.25;0.25;;;;;;;;;;4946618;28;20035;-84
2023/04/27 09:55:56;;;;;;;0.45;0.40;;;;;;;;;;4954236;28;20022;-83
2023/04/27 09:58:41;;;;;;;0.93;0.47;;;;;;;;;;4914802;28;20078;-84
2023/04/27 10:01:10;;;;;;;0.88;0.60;;;;;;;;;;4950104;28;20470;-83
2023/04/27 10:03:45;;;;;;;1.15;0.65;;;;;;;;;;4949801;28;20072;-83
2023/04/27 10:06:31;;;;;;;0.80;0.57;;;;;;;;;;4952882;28;20055;-84
2023/04/27 10:08:58;;;;;;;0.30;0.30;;;;;;;;;;4952608;28;20050;-84
2023/04/27 10:11:33;;;;;;;0.77;0.50;;;;;;;;;;4966009;28;20031;-85
2023/04/27 10:14:06;;;;;;;0.38;0.38;;;;;;;;;;4944874;28;20081;-85
2023/04/27 10:16:39;;;;;;;0.30;0.30;;;;;;;;;;4953584;28;20029;-85
2023/04/27 10:19:09;;;;;;;0.50;0.47;;;;;;;;;;4934293;29;20563;-84
2023/04/27 10:21:35;;;;;;;0.75;0.45;;;;;;;;;;4940214;28;20730;-85
2023/04/27 10:24:08;;;;;;;0.43;0.43;;;;;;;;;;4952540;28;20067;-84
2023/04/27 10:26:35;;;;;;;1.75;0.73;;;;;;;;;;4953544;28;20110;-85
2023/04/27 10:29:09;;;;;;;0.30;0.30;;;;;;;;;;4953153;28;20027;-85
2023/04/27 10:31:35;;;;;;;0.82;0.50;;;;;;;;;;4953839;28;20031;-84
2023/04/27 10:34:15;;;;;;;0.47;0.40;;;;;;;;;;4950592;28;20100;-84
2023/04/27 10:36:41;;;;;;;0.50;0.40;;;;;;;;;;4953489;28;20026;-84
2023/04/27 10:39:15;;;;;;;0.38;0.30;;;;;;;;;;4950288;28;20023;-83
2023/04/27 10:41:49;;;;;;;0.28;0.28;;;;;;;;;;4943231;28;20027;-83
2023/04/27 10:44:27;;;;;;;0.38;0.38;;;;;;;;;;4965108;28;20047;-85
2023/04/27 10:46:53;;;;;;;0.30;0.30;;;;;;;;;;4952926;28;20035;-85
2023/04/27 10:49:20;;;;;;;0.40;0.40;;;;;;;;;;4952046;28;20706;-85
2023/04/27 10:51:46;;;;;;;0.30;0.30;;;;;;;;;;4935829;29;20528;-84
2023/04/27 10:54:12;;;;;;;1.17;0.52;;;;;;;;;;4952349;28;20035;-85
2023/04/27 10:56:38;;;;;;;2.45;0.47;;;;;;;;;;4934317;29;20027;-84
2023/04/27 10:59:05;;;;;;;0.30;0.30;;;;;;;;;;4952891;28;20043;-84
2023/04/27 11:01:31;;;;;;;0.45;0.45;;;;;;;;;;4952475;28;20165;-84
2023/04/27 11:03:57;;;;;;;0.32;0.32;;;;;;;;;;4952656;28;20028;-84
2023/04/27 11:06:23;;;;;;;0.90;0.52;;;;;;;;;;4934370;28;20039;-83
2023/04/27 11:08:50;;;;;;;0.40;0.40;;;;;;;;;;4954106;28;20035;-84
2023/04/27 11:11:16;;;;;;;1.60;0.60;;;;;;;;;;4952656;28;20088;-84
2023/04/27 11:13:43;;;;;;;0.40;0.40;;;;;;;;;;4959298;28;20057;-84
2023/04/27 11:16:10;;;;;;;0.60;0.52;;;;;;;;;;4952481;28;20480;-84
2023/04/27 11:18:36;;;;;;;0.30;0.20;;;;;;;;;;4952484;28;20023;-84
2023/04/27 11:21:21;;;;;;;0.25;0.25;;;;;;;;;;4951780;28;20027;-83
2023/04/27 11:23:47;;;;;;;0.77;0.57;;;;;;;;;;4949537;28;20024;-84
2023/04/27 11:26:13;;;;;;;0.85;0.50;;;;;;;;;;4951570;28;20031;-85
2023/04/27 11:28:40;;;;;;;0.50;0.50;;;;;;;;;;4952356;28;20035;-84
2023/04/27 11:31:06;;;;;;;0.50;0.50;;;;;;;;;;4952077;28;20067;-84
2023/04/27 11:33:35;;;;;;;0.60;0.40;;;;;;;;;;4951628;28;20499;-84
2023/04/27 11:36:02;;;;;;;0.82;0.50;;;;;;;;;;4949039;28;20486;-84
2023/04/27 11:38:32;;;;;;;0.32;0.32;;;;;;;;;;4952399;28;20038;-84
2023/04/27 11:41:15;;;;;;;0.50;0.50;;;;;;;;;;4951887;28;20114;-84
2023/04/27 11:43:46;;;;;;;0.90;0.50;;;;;;;;;;4934198;28;20035;-84
2023/04/27 11:46:12;;;;;;;1.38;0.50;;;;;;;;;;4959220;28;20062;-85
2023/04/27 11:48:39;;;;;;;0.35;0.35;;;;;;;;;;4943020;28;20046;-84
2023/04/27 11:51:05;;;;;;;0.50;0.50;;;;;;;;;;4945385;28;20161;-84
2023/04/27 11:53:36;;;;;;;1.95;0.35;;;;;;;;;;4951417;28;20039;-84
2023/04/27 11:56:04;;;;;;;0.50;0.50;;;;;;;;;;4934545;29;20023;-84
2023/04/27 11:58:32;;;;;;;0.80;0.40;;;;;;;;;;4947062;28;20063;-84
2023/04/27 12:00:58;;;;;;;0.40;0.40;;;;;;;;;;4950424;28;20039;-84
2023/04/27 12:03:24;;;;;;;1.67;0.50;;;;;;;;;;4945411;28;20027;-78
2023/04/27 12:05:51;;;;;;;0.40;0.40;;;;;;;;;;4949048;28;20051;-76
2023/04/27 12:08:17;;;;;;;0.22;0.22;;;;;;;;;;4950865;28;20031;-80
2023/04/27 12:10:44;;;;;;;0.20;0.20;;;;;;;;;;4949169;28;20035;-84
2023/04/27 12:13:11;;;;;;;0.40;0.40;;;;;;;;;;4948749;28;20032;-82
2023/04/27 12:15:37;;;;;;;0.43;0.32;;;;;;;;;;4950554;28;20675;-81
2023/04/27 12:18:03;;;;;;;0.30;0.30;;;;;;;;;;4950343;28;20502;-82
2023/04/27 12:20:29;;;;;;;0.50;0.50;;;;;;;;;;4950301;28;20367;-84
2023/04/27 12:22:56;;;;;;;0.22;0.22;;;;;;;;;;4948253;28;20023;-83
2023/04/27 12:25:22;;;;;;;0.43;0.43;;;;;;;;;;4949112;28;20028;-75
2023/04/27 12:27:49;;;;;;;0.30;0.30;;;;;;;;;;4946886;28;20763;-79
2023/04/27 12:30:15;;;;;;;3.65;0.47;;;;;;;;;;4941005;28;20364;-79
2023/04/27 12:32:41;;;;;;;0.20;0.20;;;;;;;;;;4945201;28;20032;-78
2023/04/27 12:35:08;;;;;;;0.50;0.40;;;;;;;;;;4948858;28;20027;-77
2023/04/27 12:37:34;;;;;;;0.40;0.35;;;;;;;;;;4945649;28;20227;-77
2023/04/27 12:40:00;;;;;;;1.35;0.55;;;;;;;;;;4949809;28;20024;-77
2023/04/27 12:42:26;;;;;;;0.40;0.40;;;;;;;;;;4949604;28;20086;-77
2023/04/27 12:44:52;;;;;;;0.57;0.50;;;;;;;;;;4949866;28;20031;-79
2023/04/27 12:47:21;;;;;;;0.45;0.45;;;;;;;;;;4942598;28;20049;-78
2023/04/27 12:49:47;;;;;;;0.73;0.30;;;;;;;;;;4948572;28;20154;-76
2023/04/27 12:52:13;;;;;;;1.30;0.30;;;;;;;;;;4949775;28;20039;-76
2023/04/27 12:54:39;;;;;;;0.60;0.60;;;;;;;;;;4949671;28;20053;-76
2023/04/27 12:57:05;;;;;;;0.35;0.35;;;;;;;;;;4949515;28;20031;-76
2023/04/27 12:59:35;;;;;;;0.32;0.32;;;;;;;;;;4940293;28;20026;-72
2023/04/27 13:02:02;;;;;;;0.40;0.40;;;;;;;;;;4934905;28;20075;-72
2023/04/27 13:04:32;;;;;;;0.47;0.47;;;;;;;;;;4939622;28;20105;-88
2023/04/27 13:07:02;;;;;;;0.38;0.38;;;;;;;;;;4940943;28;20035;-76
2023/04/27 13:09:28;;;;;;;0.30;0.30;;;;;;;;;;4948662;28;20124;-78
2023/04/27 13:11:54;;;;;;;0.32;0.30;;;;;;;;;;4940092;28;20027;-79
2023/04/27 13:14:20;;;;;;;1.48;0.52;;;;;;;;;;4941794;28;20031;-78
2023/04/27 13:16:47;;;;;;;0.50;0.50;;;;;;;;;;4939668;28;20032;-78
2023/04/27 13:19:13;;;;;;;0.32;0.30;;;;;;;;;;4940843;28;20039;-81
2023/04/27 13:21:39;;;;;;;0.38;0.30;;;;;;;;;;4940994;28;20031;-78
2023/04/27 13:24:05;;;;;;;1.23;0.47;;;;;;;;;;4945178;28;20471;-78
2023/04/27 13:26:31;;;;;;;2.03;1.08;;;;;;;;;;4942491;28;20039;-79
2023/04/27 13:28:57;;;;;;;0.47;0.45;;;;;;;;;;4943140;28;20090;-77
2023/04/27 13:31:23;;;;;;;0.63;0.52;;;;;;;;;;4941844;28;20039;-77
2023/04/27 13:33:49;;;;;;;0.43;0.43;;;;;;;;;;4946156;28;20061;-77
2023/04/27 13:36:16;;;;;;;0.40;0.40;;;;;;;;;;4940590;28;20027;-76
2023/04/27 13:38:42;;;;;;;0.30;0.30;;;;;;;;;;4937499;28;20031;-75
2023/04/27 13:41:08;;;;;;;0.63;0.43;;;;;;;;;;4947609;28;20019;-76
2023/04/27 13:43:34;;;;;;;0.20;0.20;;;;;;;;;;4950573;28;20019;-75
2023/04/27 13:46:01;;;;;;;0.43;0.43;;;;;;;;;;4947877;28;20027;-75
2023/04/27 13:48:27;;;;;;;0.65;0.43;;;;;;;;;;4947411;28;20031;-77
2023/04/27 13:50:54;;;;;;;0.40;0.40;;;;;;;;;;4946680;28;20071;-77
2023/04/27 13:53:20;;;;;;;3.00;0.55;;;;;;;;;;4946678;28;20056;-81
2023/04/27 13:55:46;;;;;;;0.73;0.40;;;;;;;;;;4950700;28;20039;-81
2023/04/27 13:58:12;;;;;;;2.97;0.73;;;;;;;;;;4947347;28;20159;-77
2023/04/27 14:00:38;;;;;;;0.32;0.32;;;;;;;;;;4944816;28;20027;-74
2023/04/27 14:03:07;;;;;;;0.28;0.28;;;;;;;;;;4943845;28;20055;-74
2023/04/27 14:05:33;;;;;;;0.30;0.30;;;;;;;;;;4945662;28;20054;-74
2023/04/27 14:07:59;;;;;;;2.45;0.68;;;;;;;;;;4941433;28;20031;-80
2023/04/27 14:10:25;;;;;;;0.63;0.30;;;;;;;;;;4949931;28;20023;-78
2023/04/27 14:12:51;;;;;;;0.85;0.50;;;;;;;;;;4937933;28;20039;-75
2023/04/27 14:15:17;;;;;;;0.70;0.60;;;;;;;;;;4948122;28;20246;-76
2023/04/27 14:17:43;;;;;;;0.30;0.25;;;;;;;;;;4947247;28;20035;-75
2023/04/27 14:20:09;;;;;;;0.45;0.43;;;;;;;;;;4949470;28;20042;-75
2023/04/27 14:22:35;;;;;;;0.77;0.38;;;;;;;;;;4948007;28;20054;-75
2023/04/27 14:25:01;;;;;;;0.40;0.40;;;;;;;;;;4944968;28;20027;-75
2023/04/27 14:27:27;;;;;;;0.40;0.40;;;;;;;;;;4943274;28;20039;-75
2023/04/27 14:30:20;;;;;;;1.35;0.80;;;;;;;;;;4946922;28;20490;-76
2023/04/27 14:32:46;;;;;;;0.30;0.30;;;;;;;;;;4942654;28;20047;-75
2023/04/27 14:35:12;;;;;;;4.10;0.45;;;;;;;;;;4943970;28;20091;-76
2023/04/27 14:37:38;;;;;;;1.08;0.77;;;;;;;;;;4944792;28;20035;-75
2023/04/27 14:40:05;;;;;;;0.73;0.57;;;;;;;;;;4934881;28;20116;-75
2023/04/27 14:42:31;;;;;;;0.75;0.60;;;;;;;;;;4949019;28;20019;-75